sensor_id;sensor_type;location;lat;lon;timestamp;temperature;humidity
43842;DHT22;29495;49.970;20.842;2024-03-25T00:01:45;3.40;99.90
43842;DHT22;29495;49.970;20.842;2024-03-25T00:04:11;3.40;99.90
43842;DHT22;29495;49.970;20.842;2024-03-25T00:06:37;3.40;99.90
43842;DHT22;29495;49.970;20.842;2024-03-25T00:09:06;3.30;99.90
43842;DHT22;29495;49.970;20.842;2024-03-25T00:11:42;3.40;99.90
43842;DHT22;29495;49.970;20.842;2024-03-25T00:14:08;3.20;99.90
43842;DHT22;29495;49.970;20.842;2024-03-25T00:16:34;3.10;99.90
43842;DHT22;29495;49.970;20.842;2024-03-25T00:19:01;3.20;99.90
43842;DHT22;29495;49.970;20.842;2024-03-25T00:21:27;3.10;99.90
43842;DHT22;29495;49.970;20.842;2024-03-25T00:23:53;3.10;99.90
43842;DHT22;29495;49.970;20.842;2024-03-25T00:26:22;2.90;99.90
43842;DHT22;29495;49.970;20.842;2024-03-25T00:28:48;3.00;99.90
43842;DHT22;29495;49.970;20.842;2024-03-25T00:31:14;3.10;99.90
43842;DHT22;29495;49.970;20.842;2024-03-25T00:33:40;3.10;99.90
43842;DHT22;29495;49.970;20.842;2024-03-25T00:36:06;3.10;99.90
43842;DHT22;29495;49.970;20.842;2024-03-25T00:38:33;3.30;99.90
43842;DHT22;29495;49.970;20.842;2024-03-25T00:40:59;3.30;99.90
43842;DHT22;29495;49.970;20.842;2024-03-25T00:43:25;3.30;99.90
43842;DHT22;29495;49.970;20.842;2024-03-25T00:45:52;3.30;99.90
43842;DHT22;29495;49.970;20.842;2024-03-25T00:48:18;3.30;99.90
43842;DHT22;29495;49.970;20.842;2024-03-25T00:50:44;3.30;99.90
43842;DHT22;29495;49.970;20.842;2024-03-25T00:53:13;3.20;99.90
43842;DHT22;29495;49.970;20.842;2024-03-25T00:55:40;3.20;99.90
43842;DHT22;29495;49.970;20.842;2024-03-25T00:58:06;3.20;99.90
43842;DHT22;29495;49.970;20.842;2024-03-25T01:00:35;3.10;99.90
43842;DHT22;29495;49.970;20.842;2024-03-25T01:03:04;3.10;99.90
43842;DHT22;29495;49.970;20.842;2024-03-25T01:05:54;3.10;99.90
43842;DHT22;29495;49.970;20.842;2024-03-25T01:08:31;3.10;99.90
43842;DHT22;29495;49.970;20.842;2024-03-25T01:11:01;3.00;99.90
43842;DHT22;29495;49.970;20.842;2024-03-25T01:13:39;3.00;99.90
43842;DHT22;29495;49.970;20.842;2024-03-25T01:16:15;3.00;99.90
43842;DHT22;29495;49.970;20.842;2024-03-25T01:18:47;3.00;99.90
43842;DHT22;29495;49.970;20.842;2024-03-25T01:21:17;3.00;99.90
43842;DHT22;29495;49.970;20.842;2024-03-25T01:23:44;3.00;99.90
43842;DHT22;29495;49.970;20.842;2024-03-25T01:26:15;3.00;99.90
43842;DHT22;29495;49.970;20.842;2024-03-25T01:28:45;3.10;99.90
43842;DHT22;29495;49.970;20.842;2024-03-25T01:31:13;3.20;99.90
43842;DHT22;29495;49.970;20.842;2024-03-25T01:33:39;3.20;99.90
43842;DHT22;29495;49.970;20.842;2024-03-25T01:36:17;3.30;99.90
43842;DHT22;29495;49.970;20.842;2024-03-25T01:38:44;3.30;99.90
43842;DHT22;29495;49.970;20.842;2024-03-25T01:41:10;3.40;99.90
43842;DHT22;29495;49.970;20.842;2024-03-25T01:43:37;3.50;99.90
43842;DHT22;29495;49.970;20.842;2024-03-25T01:46:03;3.50;99.90
43842;DHT22;29495;49.970;20.842;2024-03-25T01:48:31;3.60;99.90
43842;DHT22;29495;49.970;20.842;2024-03-25T01:50:57;3.70;99.90
43842;DHT22;29495;49.970;20.842;2024-03-25T01:53:23;3.70;99.90
43842;DHT22;29495;49.970;20.842;2024-03-25T01:55:50;3.70;99.90
43842;DHT22;29495;49.970;20.842;2024-03-25T01:58:19;3.70;99.90
43842;DHT22;29495;49.970;20.842;2024-03-25T02:00:45;3.60;99.90
43842;DHT22;29495;49.970;20.842;2024-03-25T02:03:12;3.70;99.90
43842;DHT22;29495;49.970;20.842;2024-03-25T02:05:38;3.70;99.90
43842;DHT22;29495;49.970;20.842;2024-03-25T02:08:04;3.70;99.90
43842;DHT22;29495;49.970;20.842;2024-03-25T02:10:31;3.70;99.90
43842;DHT22;29495;49.970;20.842;2024-03-25T02:12:58;3.70;99.90
43842;DHT22;29495;49.970;20.842;2024-03-25T02:15:24;3.70;99.90
43842;DHT22;29495;49.970;20.842;2024-03-25T02:17:52;3.70;99.90
43842;DHT22;29495;49.970;20.842;2024-03-25T02:20:18;3.80;99.90
43842;DHT22;29495;49.970;20.842;2024-03-25T02:22:44;3.70;99.90
43842;DHT22;29495;49.970;20.842;2024-03-25T02:25:10;3.80;99.90
43842;DHT22;29495;49.970;20.842;2024-03-25T02:27:37;3.90;99.90
43842;DHT22;29495;49.970;20.842;2024-03-25T02:30:09;3.90;99.90
43842;DHT22;29495;49.970;20.842;2024-03-25T02:32:36;3.90;99.90
43842;DHT22;29495;49.970;20.842;2024-03-25T02:35:03;3.80;99.90
43842;DHT22;29495;49.970;20.842;2024-03-25T02:37:30;3.80;99.90
43842;DHT22;29495;49.970;20.842;2024-03-25T02:39:57;3.90;99.90
43842;DHT22;29495;49.970;20.842;2024-03-25T02:42:27;3.80;99.90
43842;DHT22;29495;49.970;20.842;2024-03-25T02:44:57;3.80;99.90
43842;DHT22;29495;49.970;20.842;2024-03-25T02:47:23;3.70;99.90
43842;DHT22;29495;49.970;20.842;2024-03-25T02:49:49;3.80;99.90
43842;DHT22;29495;49.970;20.842;2024-03-25T02:52:15;3.70;99.90
43842;DHT22;29495;49.970;20.842;2024-03-25T02:54:42;3.80;99.90
43842;DHT22;29495;49.970;20.842;2024-03-25T02:57:07;3.80;99.90
43842;DHT22;29495;49.970;20.842;2024-03-25T02:59:33;3.80;99.90
43842;DHT22;29495;49.970;20.842;2024-03-25T03:01:59;3.90;99.90
43842;DHT22;29495;49.970;20.842;2024-03-25T03:04:25;4.00;99.90
43842;DHT22;29495;49.970;20.842;2024-03-25T03:06:51;3.90;99.90
43842;DHT22;29495;49.970;20.842;2024-03-25T03:09:18;4.00;99.90
43842;DHT22;29495;49.970;20.842;2024-03-25T03:11:44;4.10;99.90
43842;DHT22;29495;49.970;20.842;2024-03-25T03:14:11;4.10;99.90
43842;DHT22;29495;49.970;20.842;2024-03-25T03:16:37;4.10;99.90
43842;DHT22;29495;49.970;20.842;2024-03-25T03:19:03;4.10;99.90
43842;DHT22;29495;49.970;20.842;2024-03-25T03:21:30;4.10;99.90
43842;DHT22;29495;49.970;20.842;2024-03-25T03:23:56;4.20;99.90
43842;DHT22;29495;49.970;20.842;2024-03-25T03:26:23;4.20;99.90
43842;DHT22;29495;49.970;20.842;2024-03-25T03:28:58;4.20;99.90
43842;DHT22;29495;49.970;20.842;2024-03-25T03:31:25;4.20;99.90
43842;DHT22;29495;49.970;20.842;2024-03-25T03:33:51;4.20;99.90
43842;DHT22;29495;49.970;20.842;2024-03-25T03:36:18;4.30;99.90
43842;DHT22;29495;49.970;20.842;2024-03-25T03:38:44;4.30;99.90
43842;DHT22;29495;49.970;20.842;2024-03-25T03:41:10;4.30;99.90
43842;DHT22;29495;49.970;20.842;2024-03-25T03:43:36;4.30;99.90
43842;DHT22;29495;49.970;20.842;2024-03-25T03:46:03;4.30;99.90
43842;DHT22;29495;49.970;20.842;2024-03-25T03:48:29;4.30;99.90
43842;DHT22;29495;49.970;20.842;2024-03-25T03:50:55;4.30;99.90
43842;DHT22;29495;49.970;20.842;2024-03-25T03:53:21;4.40;99.90
43842;DHT22;29495;49.970;20.842;2024-03-25T03:55:54;4.40;99.90
43842;DHT22;29495;49.970;20.842;2024-03-25T03:58:21;4.40;99.90
43842;DHT22;29495;49.970;20.842;2024-03-25T04:00:47;4.40;99.90
43842;DHT22;29495;49.970;20.842;2024-03-25T04:03:13;4.40;99.90
43842;DHT22;29495;49.970;20.842;2024-03-25T04:05:39;4.40;99.90
43842;DHT22;29495;49.970;20.842;2024-03-25T04:08:05;4.40;99.90
43842;DHT22;29495;49.970;20.842;2024-03-25T04:10:31;4.40;99.90
43842;DHT22;29495;49.970;20.842;2024-03-25T04:12:57;4.40;99.90
43842;DHT22;29495;49.970;20.842;2024-03-25T04:15:23;4.40;99.90
43842;DHT22;29495;49.970;20.842;2024-03-25T04:17:49;4.30;99.90
43842;DHT22;29495;49.970;20.842;2024-03-25T04:20:15;4.40;99.90
43842;DHT22;29495;49.970;20.842;2024-03-25T04:22:45;4.40;99.90
43842;DHT22;29495;49.970;20.842;2024-03-25T04:25:11;4.40;99.90
43842;DHT22;29495;49.970;20.842;2024-03-25T04:27:38;4.40;99.90
43842;DHT22;29495;49.970;20.842;2024-03-25T04:30:05;4.50;99.90
43842;DHT22;29495;49.970;20.842;2024-03-25T04:32:32;4.50;99.90
43842;DHT22;29495;49.970;20.842;2024-03-25T04:34:58;4.40;99.90
43842;DHT22;29495;49.970;20.842;2024-03-25T04:37:24;4.50;99.90
43842;DHT22;29495;49.970;20.842;2024-03-25T04:39:50;4.50;99.90
43842;DHT22;29495;49.970;20.842;2024-03-25T04:42:18;4.60;99.90
43842;DHT22;29495;49.970;20.842;2024-03-25T04:44:44;4.50;99.90
43842;DHT22;29495;49.970;20.842;2024-03-25T04:47:10;4.60;99.90
43842;DHT22;29495;49.970;20.842;2024-03-25T04:49:36;4.70;99.90
43842;DHT22;29495;49.970;20.842;2024-03-25T04:52:06;4.70;99.90
43842;DHT22;29495;49.970;20.842;2024-03-25T04:54:32;4.70;99.90
43842;DHT22;29495;49.970;20.842;2024-03-25T04:56:58;4.60;99.90
43842;DHT22;29495;49.970;20.842;2024-03-25T04:59:28;4.70;99.90
43842;DHT22;29495;49.970;20.842;2024-03-25T05:01:57;4.70;99.90
43842;DHT22;29495;49.970;20.842;2024-03-25T05:04:27;4.70;99.90
43842;DHT22;29495;49.970;20.842;2024-03-25T05:06:55;4.70;99.90
43842;DHT22;29495;49.970;20.842;2024-03-25T05:09:21;4.50;99.90
43842;DHT22;29495;49.970;20.842;2024-03-25T05:11:48;4.60;99.90
43842;DHT22;29495;49.970;20.842;2024-03-25T05:14:14;4.70;99.90
43842;DHT22;29495;49.970;20.842;2024-03-25T05:16:40;4.70;99.90
43842;DHT22;29495;49.970;20.842;2024-03-25T05:19:06;4.60;99.90
43842;DHT22;29495;49.970;20.842;2024-03-25T05:21:32;4.70;99.90
43842;DHT22;29495;49.970;20.842;2024-03-25T05:23:58;4.60;99.90
43842;DHT22;29495;49.970;20.842;2024-03-25T05:26:24;4.60;99.90
43842;DHT22;29495;49.970;20.842;2024-03-25T05:28:54;4.70;99.90
43842;DHT22;29495;49.970;20.842;2024-03-25T05:31:20;4.90;99.90
43842;DHT22;29495;49.970;20.842;2024-03-25T05:33:46;5.80;99.90
43842;DHT22;29495;49.970;20.842;2024-03-25T05:36:15;6.90;99.90
43842;DHT22;29495;49.970;20.842;2024-03-25T05:46:20;7.70;99.90
43842;DHT22;29495;49.970;20.842;2024-03-25T05:48:50;7.60;99.90
43842;DHT22;29495;49.970;20.842;2024-03-25T05:51:34;8.60;99.90
43842;DHT22;29495;49.970;20.842;2024-03-25T05:54:00;9.60;99.90
43842;DHT22;29495;49.970;20.842;2024-03-25T05:56:26;10.80;96.40
43842;DHT22;29495;49.970;20.842;2024-03-25T05:58:56;11.90;93.70
43842;DHT22;29495;49.970;20.842;2024-03-25T06:01:22;12.00;85.40
43842;DHT22;29495;49.970;20.842;2024-03-25T06:03:48;13.30;83.70
43842;DHT22;29495;49.970;20.842;2024-03-25T06:06:15;14.00;77.00
43842;DHT22;29495;49.970;20.842;2024-03-25T06:08:41;14.50;67.80
43842;DHT22;29495;49.970;20.842;2024-03-25T06:11:07;14.90;67.70
43842;DHT22;29495;49.970;20.842;2024-03-25T06:13:33;15.40;66.30
43842;DHT22;29495;49.970;20.842;2024-03-25T06:16:01;15.50;64.00
43842;DHT22;29495;49.970;20.842;2024-03-25T06:18:28;15.50;60.00
43842;DHT22;29495;49.970;20.842;2024-03-25T06:20:54;16.30;62.40
43842;DHT22;29495;49.970;20.842;2024-03-25T06:23:29;16.30;59.20
43842;DHT22;29495;49.970;20.842;2024-03-25T06:25:55;16.50;59.00
43842;DHT22;29495;49.970;20.842;2024-03-25T06:28:22;17.10;57.20
43842;DHT22;29495;49.970;20.842;2024-03-25T06:30:48;17.50;58.50
43842;DHT22;29495;49.970;20.842;2024-03-25T06:33:33;18.70;56.60
43842;DHT22;29495;49.970;20.842;2024-03-25T06:36:18;18.90;52.70
43842;DHT22;29495;49.970;20.842;2024-03-25T06:38:44;18.60;51.40
43842;DHT22;29495;49.970;20.842;2024-03-25T06:41:10;17.90;52.90
43842;DHT22;29495;49.970;20.842;2024-03-25T06:43:36;17.90;52.20
43842;DHT22;29495;49.970;20.842;2024-03-25T06:46:04;18.20;51.10
43842;DHT22;29495;49.970;20.842;2024-03-25T06:48:30;18.40;50.40
43842;DHT22;29495;49.970;20.842;2024-03-25T06:50:57;18.10;50.90
43842;DHT22;29495;49.970;20.842;2024-03-25T06:53:23;18.20;51.70
43842;DHT22;29495;49.970;20.842;2024-03-25T06:55:53;18.30;51.80
43842;DHT22;29495;49.970;20.842;2024-03-25T06:58:19;18.00;50.50
43842;DHT22;29495;49.970;20.842;2024-03-25T07:00:45;18.30;49.60
43842;DHT22;29495;49.970;20.842;2024-03-25T07:03:11;18.00;50.80
43842;DHT22;29495;49.970;20.842;2024-03-25T07:05:37;18.80;51.20
43842;DHT22;29495;49.970;20.842;2024-03-25T07:08:03;18.50;49.30
43842;DHT22;29495;49.970;20.842;2024-03-25T07:10:31;18.60;49.50
43842;DHT22;29495;49.970;20.842;2024-03-25T07:12:57;19.10;48.50
43842;DHT22;29495;49.970;20.842;2024-03-25T07:15:23;19.10;48.30
43842;DHT22;29495;49.970;20.842;2024-03-25T07:17:49;19.30;51.10
43842;DHT22;29495;49.970;20.842;2024-03-25T07:20:15;18.90;48.80
43842;DHT22;29495;49.970;20.842;2024-03-25T07:22:41;18.80;49.10
43842;DHT22;29495;49.970;20.842;2024-03-25T07:25:07;18.90;50.40
43842;DHT22;29495;49.970;20.842;2024-03-25T07:27:35;17.60;50.90
43842;DHT22;29495;49.970;20.842;2024-03-25T07:30:01;16.50;52.30
43842;DHT22;29495;49.970;20.842;2024-03-25T07:32:28;15.70;53.70
43842;DHT22;29495;49.970;20.842;2024-03-25T07:34:54;16.10;54.70
43842;DHT22;29495;49.970;20.842;2024-03-25T07:37:20;16.90;55.50
43842;DHT22;29495;49.970;20.842;2024-03-25T07:39:46;17.70;51.60
43842;DHT22;29495;49.970;20.842;2024-03-25T07:42:12;18.50;51.70
43842;DHT22;29495;49.970;20.842;2024-03-25T07:44:38;18.80;50.00
43842;DHT22;29495;49.970;20.842;2024-03-25T07:47:04;18.40;52.60
43842;DHT22;29495;49.970;20.842;2024-03-25T07:49:31;18.60;50.30
43842;DHT22;29495;49.970;20.842;2024-03-25T07:51:56;18.20;48.90
43842;DHT22;29495;49.970;20.842;2024-03-25T07:54:22;18.50;50.30
43842;DHT22;29495;49.970;20.842;2024-03-25T07:56:48;18.10;51.90
43842;DHT22;29495;49.970;20.842;2024-03-25T07:59:14;16.60;51.70
43842;DHT22;29495;49.970;20.842;2024-03-25T08:01:43;15.00;56.60
43842;DHT22;29495;49.970;20.842;2024-03-25T08:04:10;13.90;59.60
43842;DHT22;29495;49.970;20.842;2024-03-25T08:06:36;12.70;63.10
43842;DHT22;29495;49.970;20.842;2024-03-25T08:09:03;11.70;70.50
43842;DHT22;29495;49.970;20.842;2024-03-25T08:11:32;11.40;77.60
43842;DHT22;29495;49.970;20.842;2024-03-25T08:13:58;11.10;83.90
43842;DHT22;29495;49.970;20.842;2024-03-25T08:16:24;10.70;84.80
43842;DHT22;29495;49.970;20.842;2024-03-25T08:18:50;10.40;91.90
43842;DHT22;29495;49.970;20.842;2024-03-25T08:21:16;10.10;91.20
43842;DHT22;29495;49.970;20.842;2024-03-25T08:23:45;9.80;94.20
43842;DHT22;29495;49.970;20.842;2024-03-25T08:26:11;9.80;93.80
43842;DHT22;29495;49.970;20.842;2024-03-25T08:28:37;10.00;95.70
43842;DHT22;29495;49.970;20.842;2024-03-25T08:31:05;9.90;94.40
43842;DHT22;29495;49.970;20.842;2024-03-25T08:33:31;9.80;93.80
43842;DHT22;29495;49.970;20.842;2024-03-25T08:35:57;10.00;95.70
43842;DHT22;29495;49.970;20.842;2024-03-25T08:38:23;9.80;92.90
43842;DHT22;29495;49.970;20.842;2024-03-25T08:40:50;10.00;93.80
43842;DHT22;29495;49.970;20.842;2024-03-25T08:43:16;10.10;94.20
43842;DHT22;29495;49.970;20.842;2024-03-25T08:45:43;10.20;93.90
43842;DHT22;29495;49.970;20.842;2024-03-25T08:48:15;10.60;93.30
43842;DHT22;29495;49.970;20.842;2024-03-25T08:50:43;11.00;94.00
43842;DHT22;29495;49.970;20.842;2024-03-25T08:53:09;11.00;91.80
43842;DHT22;29495;49.970;20.842;2024-03-25T08:55:35;11.00;93.10
43842;DHT22;29495;49.970;20.842;2024-03-25T08:58:04;10.40;91.60
43842;DHT22;29495;49.970;20.842;2024-03-25T09:00:50;10.20;92.10
43842;DHT22;29495;49.970;20.842;2024-03-25T09:03:31;10.20;93.50
43842;DHT22;29495;49.970;20.842;2024-03-25T09:06:01;9.90;93.30
43842;DHT22;29495;49.970;20.842;2024-03-25T09:08:28;9.80;94.40
43842;DHT22;29495;49.970;20.842;2024-03-25T09:10:54;9.80;93.10
43842;DHT22;29495;49.970;20.842;2024-03-25T09:13:29;9.90;94.70
43842;DHT22;29495;49.970;20.842;2024-03-25T09:18:47;9.60;94.70
43842;DHT22;29495;49.970;20.842;2024-03-25T09:21:14;9.70;94.00
43842;DHT22;29495;49.970;20.842;2024-03-25T09:23:41;9.60;93.40
43842;DHT22;29495;49.970;20.842;2024-03-25T09:26:07;9.50;94.20
43842;DHT22;29495;49.970;20.842;2024-03-25T09:28:33;9.20;95.00
43842;DHT22;29495;49.970;20.842;2024-03-25T09:31:00;9.40;94.60
43842;DHT22;29495;49.970;20.842;2024-03-25T09:33:26;9.30;94.90
43842;DHT22;29495;49.970;20.842;2024-03-25T09:35:52;9.20;96.20
43842;DHT22;29495;49.970;20.842;2024-03-25T09:38:18;9.20;95.80
43842;DHT22;29495;49.970;20.842;2024-03-25T09:40:44;9.40;96.10
43842;DHT22;29495;49.970;20.842;2024-03-25T09:43:22;9.20;95.00
43842;DHT22;29495;49.970;20.842;2024-03-25T09:45:49;9.20;96.50
43842;DHT22;29495;49.970;20.842;2024-03-25T09:48:21;9.00;96.80
43842;DHT22;29495;49.970;20.842;2024-03-25T09:54:51;8.60;99.90
43842;DHT22;29495;49.970;20.842;2024-03-25T09:57:41;8.60;99.90
43842;DHT22;29495;49.970;20.842;2024-03-25T12:29:35;11.40;97.90
43842;DHT22;29495;49.970;20.842;2024-03-25T12:32:01;11.40;95.70
43842;DHT22;29495;49.970;20.842;2024-03-25T12:34:29;11.50;96.00
43842;DHT22;29495;49.970;20.842;2024-03-25T12:37:02;11.30;97.30
43842;DHT22;29495;49.970;20.842;2024-03-25T12:39:31;10.90;94.90
43842;DHT22;29495;49.970;20.842;2024-03-25T12:42:03;10.40;95.20
43842;DHT22;29495;49.970;20.842;2024-03-25T12:44:30;9.90;96.20
43842;DHT22;29495;49.970;20.842;2024-03-25T12:46:56;9.80;97.90
43842;DHT22;29495;49.970;20.842;2024-03-25T12:49:24;9.50;97.90
43842;DHT22;29495;49.970;20.842;2024-03-25T12:58:37;9.00;99.90
43842;DHT22;29495;49.970;20.842;2024-03-25T13:01:36;8.90;99.90
43842;DHT22;29495;49.970;20.842;2024-03-25T13:04:34;8.30;99.90
43842;DHT22;29495;49.970;20.842;2024-03-25T13:07:14;7.70;99.90
43842;DHT22;29495;49.970;20.842;2024-03-25T13:09:45;7.60;99.90
43842;DHT22;29495;49.970;20.842;2024-03-25T13:12:21;7.30;99.90
43842;DHT22;29495;49.970;20.842;2024-03-25T13:14:55;7.40;99.90
43842;DHT22;29495;49.970;20.842;2024-03-25T13:17:36;7.40;99.90
43842;DHT22;29495;49.970;20.842;2024-03-25T13:20:02;7.20;99.90
43842;DHT22;29495;49.970;20.842;2024-03-25T13:22:30;7.30;99.90
43842;DHT22;29495;49.970;20.842;2024-03-25T13:24:58;7.10;99.90
43842;DHT22;29495;49.970;20.842;2024-03-25T13:27:28;6.90;99.90
43842;DHT22;29495;49.970;20.842;2024-03-25T13:29:54;7.00;99.90
43842;DHT22;29495;49.970;20.842;2024-03-25T13:32:20;7.00;99.90
43842;DHT22;29495;49.970;20.842;2024-03-25T13:34:46;7.00;99.90
43842;DHT22;29495;49.970;20.842;2024-03-25T13:37:15;7.20;99.90
43842;DHT22;29495;49.970;20.842;2024-03-25T13:39:43;7.40;99.90
43842;DHT22;29495;49.970;20.842;2024-03-25T13:42:13;7.50;99.90
43842;DHT22;29495;49.970;20.842;2024-03-25T13:44:39;8.20;99.90
43842;DHT22;29495;49.970;20.842;2024-03-25T13:47:05;8.50;99.90
43842;DHT22;29495;49.970;20.842;2024-03-25T13:49:33;8.80;99.90
43842;DHT22;29495;49.970;20.842;2024-03-25T13:52:00;8.70;99.90
43842;DHT22;29495;49.970;20.842;2024-03-25T13:54:29;9.00;99.90
43842;DHT22;29495;49.970;20.842;2024-03-25T13:56:59;9.10;99.90
43842;DHT22;29495;49.970;20.842;2024-03-25T13:59:25;9.20;99.90
43842;DHT22;29495;49.970;20.842;2024-03-25T14:01:51;9.10;99.90
43842;DHT22;29495;49.970;20.842;2024-03-25T14:04:19;9.40;99.90
43842;DHT22;29495;49.970;20.842;2024-03-25T14:06:45;9.20;99.90
43842;DHT22;29495;49.970;20.842;2024-03-25T14:09:24;9.10;99.90
43842;DHT22;29495;49.970;20.842;2024-03-25T14:11:51;9.20;99.90
43842;DHT22;29495;49.970;20.842;2024-03-25T14:14:17;9.20;99.90
43842;DHT22;29495;49.970;20.842;2024-03-25T14:16:43;9.10;99.90
43842;DHT22;29495;49.970;20.842;2024-03-25T14:19:09;8.90;99.90
43842;DHT22;29495;49.970;20.842;2024-03-25T14:21:35;8.90;99.90
43842;DHT22;29495;49.970;20.842;2024-03-25T14:24:01;9.00;99.90
43842;DHT22;29495;49.970;20.842;2024-03-25T14:26:27;8.80;99.90
43842;DHT22;29495;49.970;20.842;2024-03-25T14:28:53;8.70;99.90
43842;DHT22;29495;49.970;20.842;2024-03-25T14:31:19;8.50;99.90
43842;DHT22;29495;49.970;20.842;2024-03-25T14:33:45;8.50;99.90
43842;DHT22;29495;49.970;20.842;2024-03-25T14:36:11;8.40;99.90
43842;DHT22;29495;49.970;20.842;2024-03-25T14:38:37;7.90;99.90
43842;DHT22;29495;49.970;20.842;2024-03-25T14:41:05;7.80;99.90
43842;DHT22;29495;49.970;20.842;2024-03-25T14:43:31;7.90;99.90
43842;DHT22;29495;49.970;20.842;2024-03-25T14:45:57;8.20;99.90
43842;DHT22;29495;49.970;20.842;2024-03-25T14:48:24;8.20;99.90
43842;DHT22;29495;49.970;20.842;2024-03-25T14:50:50;8.30;99.90
43842;DHT22;29495;49.970;20.842;2024-03-25T14:53:19;8.50;99.90
43842;DHT22;29495;49.970;20.842;2024-03-25T14:55:45;8.70;99.90
43842;DHT22;29495;49.970;20.842;2024-03-25T14:58:11;8.80;99.90
43842;DHT22;29495;49.970;20.842;2024-03-25T15:00:37;8.70;99.90
43842;DHT22;29495;49.970;20.842;2024-03-25T15:03:03;8.90;99.90
43842;DHT22;29495;49.970;20.842;2024-03-25T15:05:29;8.80;99.90
43842;DHT22;29495;49.970;20.842;2024-03-25T15:07:55;8.80;99.90
43842;DHT22;29495;49.970;20.842;2024-03-25T15:10:21;8.60;99.90
43842;DHT22;29495;49.970;20.842;2024-03-25T15:12:47;8.40;99.90
43842;DHT22;29495;49.970;20.842;2024-03-25T15:15:13;8.10;99.90
43842;DHT22;29495;49.970;20.842;2024-03-25T15:17:39;8.20;99.90
43842;DHT22;29495;49.970;20.842;2024-03-25T15:20:05;8.10;99.90
43842;DHT22;29495;49.970;20.842;2024-03-25T15:22:31;8.00;99.90
43842;DHT22;29495;49.970;20.842;2024-03-25T15:25:00;8.00;99.90
43842;DHT22;29495;49.970;20.842;2024-03-25T15:27:26;8.00;99.90
43842;DHT22;29495;49.970;20.842;2024-03-25T15:29:53;8.10;99.90
43842;DHT22;29495;49.970;20.842;2024-03-25T15:32:21;8.10;99.90
43842;DHT22;29495;49.970;20.842;2024-03-25T15:34:53;8.10;99.90
43842;DHT22;29495;49.970;20.842;2024-03-25T15:37:24;8.00;99.90
43842;DHT22;29495;49.970;20.842;2024-03-25T15:39:53;8.10;99.90
43842;DHT22;29495;49.970;20.842;2024-03-25T15:42:19;8.20;99.90
43842;DHT22;29495;49.970;20.842;2024-03-25T15:44:45;8.10;99.90
43842;DHT22;29495;49.970;20.842;2024-03-25T15:47:13;8.10;99.90
43842;DHT22;29495;49.970;20.842;2024-03-25T15:49:43;8.10;99.90
43842;DHT22;29495;49.970;20.842;2024-03-25T15:52:11;8.00;99.90
43842;DHT22;29495;49.970;20.842;2024-03-25T15:54:37;7.90;99.90
43842;DHT22;29495;49.970;20.842;2024-03-25T15:57:03;8.00;99.90
43842;DHT22;29495;49.970;20.842;2024-03-25T15:59:30;7.90;99.90
43842;DHT22;29495;49.970;20.842;2024-03-25T16:01:56;7.70;99.90
43842;DHT22;29495;49.970;20.842;2024-03-25T16:04:22;7.50;99.90
43842;DHT22;29495;49.970;20.842;2024-03-25T16:06:49;7.30;99.90
43842;DHT22;29495;49.970;20.842;2024-03-25T16:09:15;7.40;99.90
43842;DHT22;29495;49.970;20.842;2024-03-25T16:11:45;7.60;99.90
43842;DHT22;29495;49.970;20.842;2024-03-25T16:14:11;7.60;99.90
43842;DHT22;29495;49.970;20.842;2024-03-25T16:16:46;7.60;99.90
43842;DHT22;29495;49.970;20.842;2024-03-25T16:19:12;7.60;99.90
43842;DHT22;29495;49.970;20.842;2024-03-25T16:21:38;7.60;99.90
43842;DHT22;29495;49.970;20.842;2024-03-25T16:24:04;7.60;99.90
43842;DHT22;29495;49.970;20.842;2024-03-25T16:26:30;7.40;99.90
43842;DHT22;29495;49.970;20.842;2024-03-25T16:28:56;7.50;99.90
43842;DHT22;29495;49.970;20.842;2024-03-25T16:31:22;7.40;99.90
43842;DHT22;29495;49.970;20.842;2024-03-25T16:33:48;7.40;99.90
43842;DHT22;29495;49.970;20.842;2024-03-25T16:36:14;7.40;99.90
43842;DHT22;29495;49.970;20.842;2024-03-25T16:38:41;7.40;99.90
43842;DHT22;29495;49.970;20.842;2024-03-25T16:41:07;7.40;99.90
43842;DHT22;29495;49.970;20.842;2024-03-25T16:43:33;7.30;99.90
43842;DHT22;29495;49.970;20.842;2024-03-25T16:45:59;7.20;99.90
43842;DHT22;29495;49.970;20.842;2024-03-25T16:48:25;7.10;99.90
43842;DHT22;29495;49.970;20.842;2024-03-25T16:50:52;6.90;99.90
43842;DHT22;29495;49.970;20.842;2024-03-25T16:53:18;6.90;99.90
43842;DHT22;29495;49.970;20.842;2024-03-25T16:55:44;6.90;99.90
43842;DHT22;29495;49.970;20.842;2024-03-25T16:58:10;6.90;99.90
43842;DHT22;29495;49.970;20.842;2024-03-25T17:00:36;6.90;99.90
43842;DHT22;29495;49.970;20.842;2024-03-25T17:03:02;6.90;99.90
43842;DHT22;29495;49.970;20.842;2024-03-25T17:05:28;7.00;99.90
43842;DHT22;29495;49.970;20.842;2024-03-25T17:07:54;6.90;99.90
43842;DHT22;29495;49.970;20.842;2024-03-25T17:10:20;6.90;99.90
43842;DHT22;29495;49.970;20.842;2024-03-25T17:12:46;6.80;99.90
43842;DHT22;29495;49.970;20.842;2024-03-25T17:15:12;6.90;99.90
43842;DHT22;29495;49.970;20.842;2024-03-25T17:17:38;6.80;99.90
43842;DHT22;29495;49.970;20.842;2024-03-25T17:20:04;6.70;99.90
43842;DHT22;29495;49.970;20.842;2024-03-25T17:22:39;6.50;99.90
43842;DHT22;29495;49.970;20.842;2024-03-25T17:25:05;6.50;99.90
43842;DHT22;29495;49.970;20.842;2024-03-25T17:27:31;6.50;99.90
43842;DHT22;29495;49.970;20.842;2024-03-25T17:29:57;6.50;99.90
43842;DHT22;29495;49.970;20.842;2024-03-25T17:32:23;6.40;99.90
43842;DHT22;29495;49.970;20.842;2024-03-25T17:34:49;6.40;99.90
43842;DHT22;29495;49.970;20.842;2024-03-25T17:37:15;6.40;99.90
43842;DHT22;29495;49.970;20.842;2024-03-25T17:39:41;6.40;99.90
43842;DHT22;29495;49.970;20.842;2024-03-25T17:42:07;6.30;99.90
43842;DHT22;29495;49.970;20.842;2024-03-25T17:44:33;6.30;99.90
43842;DHT22;29495;49.970;20.842;2024-03-25T17:47:01;6.30;99.90
43842;DHT22;29495;49.970;20.842;2024-03-25T17:49:28;6.30;99.90
43842;DHT22;29495;49.970;20.842;2024-03-25T17:51:54;6.20;99.90
43842;DHT22;29495;49.970;20.842;2024-03-25T17:54:20;6.20;99.90
43842;DHT22;29495;49.970;20.842;2024-03-25T17:56:46;6.20;99.90
43842;DHT22;29495;49.970;20.842;2024-03-25T17:59:12;6.30;99.90
43842;DHT22;29495;49.970;20.842;2024-03-25T18:01:38;6.30;99.90
43842;DHT22;29495;49.970;20.842;2024-03-25T18:04:04;6.40;99.90
43842;DHT22;29495;49.970;20.842;2024-03-25T18:06:34;6.50;99.90
43842;DHT22;29495;49.970;20.842;2024-03-25T18:09:04;6.50;99.90
43842;DHT22;29495;49.970;20.842;2024-03-25T18:11:30;6.40;99.90
43842;DHT22;29495;49.970;20.842;2024-03-25T18:13:57;6.40;99.90
43842;DHT22;29495;49.970;20.842;2024-03-25T18:16:23;6.20;99.90
43842;DHT22;29495;49.970;20.842;2024-03-25T18:18:49;6.10;99.90
43842;DHT22;29495;49.970;20.842;2024-03-25T18:21:15;6.10;99.90